Time;durP1;ratioP1;P1;durP2;ratioP2;P2;SDS_P1;SDS_P2;PMS_P1;PMS_P2;Temp;Humidity;BMP_temperature;BMP_pressure;BME280_temperature;BME280_humidity;BME280_pressure;Samples;Min_cycle;Max_cycle;Signal;HPM_P1;HPM_P2
2023/03/05 00:00:52;;;;;;;8.55;1.45;;;3.60;99.90;;;;;;7405165;19;19926;-72
2023/03/05 00:03:21;;;;;;;4.05;0.85;;;4.20;99.90;;;;;;7405195;19;19924;-72
2023/03/05 00:05:50;;;;;;;1.50;0.60;;;2.30;99.90;;;;;;7404943;19;19939;-71
2023/03/05 00:08:19;;;;;;;2.70;0.88;;;3.30;99.90;;;;;;7405228;19;20353;-72
2023/03/05 00:10:56;;;;;;;4.65;1.25;;;3.80;99.90;;;;;;7404505;19;19990;-72
2023/03/05 00:13:32;;;;;;;2.50;0.70;;;2.50;99.90;;;;;;7403286;19;19958;-72
2023/03/05 00:16:03;;;;;;;;;;;3.40;99.90;;;;;;7406771;19;19914;-72
2023/03/05 00:18:33;;;;;;;3.80;0.90;;;3.30;99.90;;;;;;7401506;19;19910;-73
2023/03/05 00:21:01;;;;;;;8.43;0.70;;;3.70;99.90;;;;;;7404465;19;19933;-73
2023/03/05 00:23:31;;;;;;;6.43;0.73;;;2.60;99.90;;;;;;7405037;19;19933;-73
2023/03/05 00:26:06;;;;;;;6.40;0.77;;;3.50;99.90;;;;;;7404476;19;19970;-73
2023/03/05 00:28:38;;;;;;;2.63;0.70;;;2.60;99.90;;;;;;7404498;19;19922;-73
2023/03/05 00:31:07;;;;;;;4.43;0.65;;;3.60;99.90;;;;;;7403994;19;20504;-73
2023/03/05 00:33:36;;;;;;;4.47;0.50;;;3.30;99.90;;;;;;7404299;19;19911;-73
2023/03/05 00:36:08;;;;;;;2.22;0.70;;;2.50;99.90;;;;;;7403453;19;19922;-73
2023/03/05 00:38:37;;;;;;;4.63;0.70;;;3.40;99.90;;;;;;7404383;19;19922;-73
2023/03/05 00:41:06;;;;;;;1.60;0.45;;;3.90;99.90;;;;;;7403987;19;19918;-73
2023/03/05 00:43:43;;;;;;;1.75;0.50;;;2.40;99.90;;;;;;7403626;19;20540;-74
2023/03/05 00:46:12;;;;;;;3.75;0.90;;;3.80;99.90;;;;;;7403428;19;20380;-73
2023/03/05 00:48:41;;;;;;;8.07;0.90;;;2.20;99.90;;;;;;7403567;19;20474;-73
2023/03/05 00:51:11;;;;;;;2.45;0.70;;;3.00;99.90;;;;;;7403466;19;20379;-73
2023/03/05 00:53:40;;;;;;;3.58;1.05;;;3.60;99.90;;;;;;7403485;19;20014;-73
2023/03/05 00:56:09;;;;;;;3.80;0.60;;;2.80;99.90;;;;;;7403361;19;19918;-73
2023/03/05 00:58:38;;;;;;;6.65;0.50;;;2.40;99.90;;;;;;7406130;19;20232;-73
2023/03/05 01:01:10;;;;;;;2.03;0.60;;;2.70;99.90;;;;;;7403614;19;19911;-73
2023/03/05 01:03:39;;;;;;;;;;;3.20;99.90;;;;;;7406268;19;19915;-73
2023/03/05 01:06:13;;;;;;;3.97;0.60;;;3.70;99.90;;;;;;7403427;19;19914;-73
2023/03/05 01:08:42;;;;;;;4.55;1.35;;;3.30;99.90;;;;;;7403058;19;20273;-73
2023/03/05 01:11:13;;;;;;;5.38;0.80;;;3.10;99.90;;;;;;7403023;19;20029;-73
2023/03/05 01:13:42;;;;;;;6.75;0.63;;;2.30;99.90;;;;;;7401267;19;19925;-73
2023/03/05 01:16:14;;;;;;;3.28;0.80;;;2.10;99.90;;;;;;7403041;19;19946;-73
2023/03/05 01:18:43;;;;;;;2.33;0.50;;;2.20;99.90;;;;;;7401332;19;20333;-73
2023/03/05 01:21:13;;;;;;;4.90;0.77;;;3.60;99.90;;;;;;7402876;19;19990;-73
2023/03/05 01:23:42;;;;;;;10.95;1.40;;;2.30;99.90;;;;;;7402953;19;19918;-73
2023/03/05 01:26:11;;;;;;;2.70;0.60;;;2.90;99.90;;;;;;7404136;19;19918;-74
2023/03/05 01:28:40;;;;;;;4.15;0.77;;;3.60;99.90;;;;;;7402714;19;19918;-72
2023/03/05 01:31:10;;;;;;;5.13;1.40;;;3.70;99.90;;;;;;7400618;19;19942;-73
2023/03/05 01:33:42;;;;;;;3.40;0.73;;;3.20;99.90;;;;;;7403408;19;19974;-73
2023/03/05 01:36:15;;;;;;;2.70;1.08;;;2.80;99.90;;;;;;7403093;19;19923;-73
2023/03/05 01:38:49;;;;;;;5.25;0.52;;;3.00;99.90;;;;;;7403033;19;19915;-73
2023/03/05 01:41:18;;;;;;;4.20;0.65;;;3.90;99.90;;;;;;7400686;19;19923;-73
2023/03/05 01:43:49;;;;;;;1.42;0.40;;;2.40;99.90;;;;;;7402029;19;19922;-73
2023/03/05 01:46:37;;;;;;;6.70;0.73;;;2.70;99.90;;;;;;7402971;19;19930;-72
2023/03/05 01:49:22;;;;;;;4.13;0.63;;;1.50;99.90;;;;;;7402179;19;19990;-74
2023/03/05 01:51:59;;;;;;;3.20;0.60;;;2.60;99.90;;;;;;7402352;19;19922;-73
2023/03/05 01:54:33;;;;;;;5.28;0.70;;;3.80;99.90;;;;;;7402569;19;19926;-73
2023/03/05 01:57:09;;;;;;;3.63;0.68;;;3.40;99.90;;;;;;7403053;19;19926;-73
2023/03/05 01:59:39;;;;;;;8.27;0.90;;;2.30;99.90;;;;;;7402137;19;19919;-73
2023/03/05 02:02:09;;;;;;;2.30;0.65;;;2.20;99.90;;;;;;7401985;19;19922;-71
2023/03/05 02:04:53;;;;;;;;;;;3.00;99.90;;;;;;7404037;19;19922;-71
2023/03/05 02:07:22;;;;;;;5.28;0.75;;;3.80;99.90;;;;;;7401848;19;19925;-71
2023/03/05 02:09:51;;;;;;;1.70;0.40;;;3.30;99.90;;;;;;7401465;19;19922;-72
2023/03/05 02:12:21;;;;;;;3.83;1.48;;;2.90;99.90;;;;;;7401123;19;20080;-71
2023/03/05 02:14:58;;;;;;;1.35;0.73;;;2.70;99.90;;;;;;7399598;19;19918;-71
2023/03/05 02:17:29;;;;;;;2.25;0.32;;;3.40;99.90;;;;;;7400668;19;19944;-72
2023/03/05 02:20:08;;;;;;;1.95;0.40;;;2.50;99.90;;;;;;7401098;19;19919;-72
2023/03/05 02:22:39;;;;;;;5.25;0.75;;;3.20;99.90;;;;;;7401410;19;19923;-73
2023/03/05 02:25:17;;;;;;;2.83;0.55;;;2.20;99.90;;;;;;7401303;19;19966;-72
2023/03/05 02:27:53;;;;;;;6.00;0.73;;;2.40;99.90;;;;;;7404261;19;19949;-72
2023/03/05 02:30:22;;;;;;;3.42;0.40;;;2.40;99.90;;;;;;7401000;19;20337;-71
2023/03/05 02:32:51;;;;;;;4.88;0.75;;;2.90;99.90;;;;;;7400453;19;19929;-71
2023/03/05 02:35:20;;;;;;;5.30;0.70;;;2.10;99.90;;;;;;7400985;19;19919;-71
2023/03/05 02:37:54;;;;;;;1.48;0.40;;;2.50;99.90;;;;;;7399757;19;19919;-72
2023/03/05 02:40:23;;;;;;;3.75;0.40;;;2.10;99.90;;;;;;7400510;19;20292;-72
2023/03/05 02:42:52;;;;;;;0.95;0.40;;;3.40;99.90;;;;;;7400749;19;19921;-72
2023/03/05 02:45:21;;;;;;;0.95;0.32;;;3.10;99.90;;;;;;7400342;19;19974;-72
2023/03/05 02:47:50;;;;;;;0.75;0.40;;;3.10;99.90;;;;;;7400751;19;19961;-73
2023/03/05 02:50:19;;;;;;;5.93;0.50;;;2.10;99.90;;;;;;7400488;19;20245;-73
2023/03/05 02:52:49;;;;;;;4.03;0.40;;;1.80;99.90;;;;;;7400863;19;20372;-73
2023/03/05 02:55:21;;;;;;;5.57;0.38;;;2.80;99.90;;;;;;7400643;19;19911;-72
2023/03/05 02:57:50;;;;;;;1.13;0.30;;;3.10;99.90;;;;;;7399890;19;19910;-72
2023/03/05 03:00:20;;;;;;;1.58;0.52;;;4.20;99.90;;;;;;7400773;19;19936;-72
2023/03/05 03:02:49;;;;;;;0.65;0.47;;;1.50;99.90;;;;;;7400279;19;19986;-73
2023/03/05 03:05:18;;;;;;;0.65;0.20;;;2.30;99.90;;;;;;7400676;19;19911;-72
2023/03/05 03:07:47;;;;;;;0.40;0.25;;;2.60;99.90;;;;;;7400438;19;19940;-73
2023/03/05 03:10:23;;;;;;;1.80;0.30;;;2.20;99.90;;;;;;7399940;19;20277;-73
2023/03/05 03:12:53;;;;;;;0.40;0.20;;;;;;;;;;7399122;19;20344;-73
2023/03/05 03:15:23;;;;;;;1.38;0.38;;;1.70;99.90;;;;;;7398423;19;19922;-73
2023/03/05 03:17:52;;;;;;;1.85;0.57;;;2.90;99.90;;;;;;7398368;19;19946;-72
2023/03/05 03:20:21;;;;;;;2.03;0.60;;;2.60;99.90;;;;;;7399630;19;20328;-72
2023/03/05 03:22:58;;;;;;;1.88;0.40;;;3.10;99.90;;;;;;7399953;19;19915;-72
2023/03/05 03:25:29;;;;;;;3.05;0.43;;;1.80;99.90;;;;;;7400258;19;19919;-72
2023/03/05 03:27:58;;;;;;;3.97;0.85;;;1.70;99.90;;;;;;7399322;19;20017;-72
2023/03/05 03:30:27;;;;;;;2.78;0.47;;;1.60;99.90;;;;;;7400301;19;19922;-72
2023/03/05 03:32:56;;;;;;;2.70;0.50;;;2.90;99.90;;;;;;7399774;19;19938;-73
2023/03/05 03:35:26;;;;;;;3.38;0.60;;;2.50;99.90;;;;;;7399038;19;20263;-73
2023/03/05 03:37:55;;;;;;;5.32;0.80;;;2.20;99.90;;;;;;7398356;19;19942;-73
2023/03/05 03:40:24;;;;;;;3.08;0.60;;;1.70;99.90;;;;;;7399277;19;19929;-73
2023/03/05 03:42:56;;;;;;;1.55;0.30;;;3.10;99.90;;;;;;7398808;19;19979;-73
2023/03/05 03:45:25;;;;;;;0.85;0.60;;;1.80;99.90;;;;;;7399057;19;19918;-73
2023/03/05 03:47:55;;;;;;;1.45;0.50;;;1.40;99.90;;;;;;7402589;19;19924;-73
2023/03/05 03:50:26;;;;;;;4.68;0.35;;;;;;;;;;7398526;19;19922;-72
2023/03/05 03:52:55;;;;;;;2.80;0.63;;;2.20;99.90;;;;;;7400119;19;19915;-72
2023/03/05 03:55:24;;;;;;;1.60;0.40;;;2.20;99.90;;;;;;7405722;19;19918;-73
2023/03/05 03:57:56;;;;;;;1.80;0.50;;;1.50;99.90;;;;;;7408911;19;20352;-73
2023/03/05 04:00:26;;;;;;;0.90;0.57;;;1.60;99.90;;;;;;7404974;19;19921;-73
2023/03/05 04:02:55;;;;;;;2.88;0.70;;;1.60;99.90;;;;;;7405232;19;19929;-73
2023/03/05 04:05:24;;;;;;;0.75;0.25;;;1.90;99.90;;;;;;7405101;19;19942;-73
2023/03/05 04:07:54;;;;;;;2.38;0.50;;;3.00;99.90;;;;;;7405214;19;19921;-73
2023/03/05 04:10:30;;;;;;;1.75;0.57;;;1.50;99.90;;;;;;7404930;19;19937;-74
2023/03/05 04:13:02;;;;;;;2.17;0.60;;;2.50;99.90;;;;;;7404957;19;19922;-73
2023/03/05 04:15:31;;;;;;;0.73;0.32;;;2.00;99.90;;;;;;7404737;19;19946;-73
2023/03/05 04:18:01;;;;;;;1.77;0.50;;;3.10;99.90;;;;;;7403163;19;19986;-73
2023/03/05 04:20:30;;;;;;;1.13;0.47;;;1.60;99.90;;;;;;7404482;19;19915;-74
2023/03/05 04:22:59;;;;;;;5.25;0.60;;;1.80;99.90;;;;;;7404559;19;19921;-72
2023/03/05 04:25:28;;;;;;;2.15;0.38;;;2.00;99.90;;;;;;7406191;19;20368;-73
2023/03/05 04:27:57;;;;;;;4.90;0.68;;;1.80;99.90;;;;;;7404176;19;19922;-73
2023/03/05 04:30:30;;;;;;;3.78;0.60;;;1.90;99.90;;;;;;7404253;19;19932;-73
2023/03/05 04:32:59;;;;;;;1.92;0.43;;;1.50;99.90;;;;;;7404499;19;19918;-73
2023/03/05 04:35:28;;;;;;;3.38;0.52;;;2.80;99.90;;;;;;7404728;19;19918;-73
2023/03/05 04:37:57;;;;;;;3.10;0.60;;;2.70;99.90;;;;;;7403737;19;19919;-73
2023/03/05 04:40:26;;;;;;;1.67;0.52;;;1.90;99.90;;;;;;7404123;19;19923;-73
2023/03/05 04:42:55;;;;;;;1.90;0.40;;;2.10;99.90;;;;;;7404426;19;19915;-73
2023/03/05 04:45:24;;;;;;;3.22;1.02;;;1.60;99.90;;;;;;7403929;19;19919;-72
2023/03/05 04:47:55;;;;;;;2.15;0.30;;;3.20;99.90;;;;;;7404061;19;20264;-73
2023/03/05 04:50:25;;;;;;;2.50;0.38;;;2.90;99.90;;;;;;7403756;19;19918;-72
2023/03/05 04:52:56;;;;;;;6.47;0.70;;;2.40;99.90;;;;;;7404384;19;19919;-73
2023/03/05 04:55:25;;;;;;;1.95;0.40;;;1.60;99.90;;;;;;7404620;19;19919;-73
2023/03/05 04:57:54;;;;;;;0.90;0.30;;;2.90;99.90;;;;;;7402884;19;19918;-73
2023/03/05 05:00:23;;;;;;;0.70;0.30;;;2.10;99.90;;;;;;7403644;19;19930;-72
2023/03/05 05:02:55;;;;;;;2.63;0.40;;;1.40;99.90;;;;;;7403042;19;20255;-72
2023/03/05 05:05:27;;;;;;;2.05;0.35;;;2.60;99.90;;;;;;7404180;19;19927;-72
2023/03/05 05:07:57;;;;;;;1.13;0.28;;;2.30;99.90;;;;;;7403072;19;19914;-73
2023/03/05 05:10:26;;;;;;;2.42;0.40;;;2.00;99.90;;;;;;7403490;19;19926;-73
2023/03/05 05:12:55;;;;;;;3.42;0.30;;;1.60;99.90;;;;;;7402698;19;19921;-72
2023/03/05 05:15:25;;;;;;;4.38;0.77;;;3.10;99.90;;;;;;7401836;19;20460;-72
2023/03/05 05:17:57;;;;;;;0.82;0.30;;;3.20;99.90;;;;;;7402204;19;19922;-72
2023/03/05 05:20:26;;;;;;;1.42;0.47;;;2.80;99.90;;;;;;7403414;19;19923;-72
2023/03/05 05:22:56;;;;;;;3.47;0.32;;;2.40;99.90;;;;;;7403770;19;19929;-73
2023/03/05 05:25:25;;;;;;;1.38;0.20;;;2.50;99.90;;;;;;7404044;19;19914;-73
2023/03/05 05:27:54;;;;;;;0.43;0.10;;;1.90;99.90;;;;;;7404119;19;19914;-73
2023/03/05 05:30:24;;;;;;;5.40;0.50;;;1.50;99.90;;;;;;7403825;19;20276;-73
2023/03/05 05:32:53;;;;;;;5.53;0.88;;;1.70;99.90;;;;;;7403667;19;19914;-72
2023/03/05 05:35:25;;;;;;;1.40;0.40;;;2.10;99.90;;;;;;7403365;19;19923;-72
2023/03/05 05:37:54;;;;;;;1.50;0.30;;;;;;;;;;7402398;19;19918;-72
2023/03/05 05:40:23;;;;;;;0.85;0.47;;;2.30;99.90;;;;;;7402832;19;19929;-73
2023/03/05 05:42:52;;;;;;;2.25;0.75;;;;;;;;;;7401895;19;20466;-73
2023/03/05 05:45:21;;;;;;;5.65;0.50;;;2.10;99.90;;;;;;7402398;19;20252;-73
2023/03/05 05:47:50;;;;;;;5.78;0.60;;;1.50;99.90;;;;;;7402311;19;19939;-72
2023/03/05 05:50:20;;;;;;;2.17;0.40;;;3.00;99.90;;;;;;7402559;19;19911;-72
2023/03/05 05:52:53;;;;;;;1.60;0.40;;;1.70;99.90;;;;;;7402575;19;19914;-72
2023/03/05 05:55:22;;;;;;;1.65;0.50;;;3.10;99.90;;;;;;7405515;19;19921;-73
2023/03/05 05:57:51;;;;;;;3.17;0.98;;;2.30;99.90;;;;;;7401871;19;19929;-72
2023/03/05 06:00:20;;;;;;;0.82;0.15;;;2.30;99.90;;;;;;7402198;19;20265;-73
2023/03/05 06:02:50;;;;;;;0.82;0.30;;;1.80;99.90;;;;;;7402204;19;19926;-72
2023/03/05 06:05:19;;;;;;;1.23;0.30;;;2.00;99.90;;;;;;7401526;19;20333;-72
2023/03/05 06:07:48;;;;;;;0.77;0.20;;;2.80;99.90;;;;;;7401536;19;20609;-72
2023/03/05 06:10:22;;;;;;;1.25;0.28;;;2.20;99.90;;;;;;7402020;19;19914;-72
2023/03/05 06:12:50;;;;;;;1.75;0.35;;;2.30;99.90;;;;;;7400773;19;19926;-74
2023/03/05 06:15:24;;;;;;;3.03;1.05;;;;;;;;;;7398473;19;20142;-72
2023/03/05 06:17:54;;;;;;;2.20;0.60;;;2.60;99.90;;;;;;7399988;19;19986;-73
2023/03/05 06:20:26;;;;;;;2.13;0.50;;;2.60;99.90;;;;;;7401583;19;19927;-72
2023/03/05 06:22:55;;;;;;;1.45;0.50;;;2.10;99.90;;;;;;7401008;19;19930;-72
2023/03/05 06:25:35;;;;;;;1.15;0.60;;;1.60;99.90;;;;;;7402514;19;19945;-72
2023/03/05 06:28:09;;;;;;;2.10;0.40;;;1.20;99.90;;;;;;7401237;19;19928;-72
2023/03/05 06:30:38;;;;;;;3.17;0.68;;;2.60;99.90;;;;;;7401228;19;19935;-72
2023/03/05 06:33:08;;;;;;;3.92;0.55;;;1.30;99.90;;;;;;7401633;19;20611;-72
2023/03/05 06:35:38;;;;;;;6.43;1.13;;;2.00;99.90;;;;;;7401116;19;19918;-72
2023/03/05 06:38:08;;;;;;;3.47;1.90;;;1.40;99.90;;;;;;7401605;19;19918;-72
2023/03/05 06:40:41;;;;;;;2.92;0.82;;;1.70;99.90;;;;;;7400288;19;19992;-73
2023/03/05 06:43:10;;;;;;;3.65;0.65;;;2.00;99.90;;;;;;7400427;19;19929;-72
2023/03/05 06:45:39;;;;;;;9.98;1.13;;;2.90;99.90;;;;;;7400693;19;19938;-72
2023/03/05 06:48:08;;;;;;;1.77;0.40;;;2.30;99.90;;;;;;7400116;19;19919;-72
2023/03/05 06:50:38;;;;;;;1.90;0.30;;;1.40;99.90;;;;;;7400779;19;19950;-73
2023/03/05 06:53:07;;;;;;;6.05;0.60;;;2.80;99.90;;;;;;7400407;19;19919;-72
2023/03/05 06:55:41;;;;;;;2.65;0.60;;;2.80;99.90;;;;;;7402806;19;19934;-73
2023/03/05 06:58:10;;;;;;;2.47;0.50;;;1.80;99.90;;;;;;7400024;19;20249;-72
2023/03/05 07:00:39;;;;;;;3.72;0.70;;;2.00;99.90;;;;;;7399766;19;19978;-72
2023/03/05 07:03:08;;;;;;;3.25;0.50;;;2.20;99.90;;;;;;7400348;19;20276;-72
2023/03/05 07:05:40;;;;;;;4.60;0.63;;;1.50;99.90;;;;;;7399946;19;19929;-72
2023/03/05 07:08:09;;;;;;;3.92;0.80;;;1.70;99.90;;;;;;7400096;19;19946;-72
2023/03/05 07:10:44;;;;;;;4.28;0.63;;;3.20;99.90;;;;;;7399931;19;19923;-72
2023/03/05 07:13:13;;;;;;;5.10;0.60;;;1.50;99.90;;;;;;7399225;19;19918;-73
2023/03/05 07:15:43;;;;;;;3.65;0.68;;;1.70;99.90;;;;;;7397856;19;19929;-72
2023/03/05 07:18:12;;;;;;;3.88;0.70;;;2.90;99.90;;;;;;7398295;19;19932;-72
2023/03/05 07:20:41;;;;;;;1.25;0.80;;;2.40;99.90;;;;;;7399803;19;20364;-72
2023/03/05 07:23:10;;;;;;;2.47;0.60;;;1.90;99.90;;;;;;7399336;19;19919;-72
2023/03/05 07:25:42;;;;;;;4.90;0.85;;;2.90;99.90;;;;;;7402532;19;20381;-72
2023/03/05 07:28:11;;;;;;;2.78;0.45;;;2.70;99.90;;;;;;7401783;19;19946;-73
2023/03/05 07:30:40;;;;;;;4.03;0.60;;;1.70;99.90;;;;;;7405942;19;19974;-72
2023/03/05 07:33:09;;;;;;;4.93;0.90;;;3.10;99.90;;;;;;7405883;19;19915;-73
2023/03/05 07:35:42;;;;;;;4.43;0.60;;;3.20;99.90;;;;;;7406070;19;19985;-72
2023/03/05 07:38:11;;;;;;;2.63;0.60;;;2.40;99.90;;;;;;7406231;19;19926;-72
2023/03/05 07:40:42;;;;;;;3.28;0.90;;;2.50;99.90;;;;;;7402922;19;20358;-72
2023/03/05 07:43:11;;;;;;;2.53;0.50;;;2.30;99.90;;;;;;7405298;19;19946;-72
2023/03/05 07:45:41;;;;;;;6.50;0.90;;;2.00;99.90;;;;;;7405701;19;20305;-73
2023/03/05 07:48:14;;;;;;;5.15;0.95;;;3.40;99.90;;;;;;7406085;19;19923;-73
2023/03/05 07:50:45;;;;;;;2.13;1.00;;;2.50;99.90;;;;;;7405784;19;19914;-73
2023/03/05 07:53:14;;;;;;;1.85;0.55;;;3.20;99.90;;;;;;7405509;19;19914;-72
2023/03/05 07:55:49;;;;;;;1.50;0.50;;;2.90;99.90;;;;;;7405704;19;19994;-72
2023/03/05 07:58:18;;;;;;;8.30;0.98;;;2.20;99.90;;;;;;7405858;19;20275;-72
2023/03/05 08:00:47;;;;;;;6.38;2.38;;;2.80;99.90;;;;;;7402884;19;19930;-72
2023/03/05 08:03:16;;;;;;;2.63;0.70;;;2.90;99.90;;;;;;7405499;19;19919;-72
2023/03/05 08:05:46;;;;;;;3.63;0.57;;;3.10;99.90;;;;;;7405289;19;19921;-72
2023/03/05 08:08:15;;;;;;;2.65;0.80;;;3.20;99.90;;;;;;7405218;19;19970;-73
2023/03/05 08:10:49;;;;;;;4.47;0.55;;;2.90;99.90;;;;;;7402699;19;19922;-72
2023/03/05 08:13:18;;;;;;;1.40;0.40;;;2.20;99.90;;;;;;7404605;19;19914;-72
2023/03/05 08:15:48;;;;;;;2.17;0.70;;;3.70;99.90;;;;;;7402553;19;19927;-73
2023/03/05 08:18:23;;;;;;;6.90;2.10;;;;;;;;;;7402500;19;19955;-73
2023/03/05 08:20:53;;;;;;;3.15;0.60;;;3.40;99.90;;;;;;7405621;19;20574;-72
2023/03/05 08:23:22;;;;;;;6.30;1.50;;;2.50;99.90;;;;;;7405797;19;19978;-72
2023/03/05 08:25:54;;;;;;;4.05;0.40;;;3.60;99.90;;;;;;7404407;19;19920;-73
2023/03/05 08:28:28;;;;;;;3.10;0.82;;;2.90;99.90;;;;;;7404801;19;19925;-73
2023/03/05 08:30:57;;;;;;;3.80;0.57;;;2.20;99.90;;;;;;7404505;19;19987;-72
2023/03/05 08:33:29;;;;;;;1.88;0.50;;;2.20;99.90;;;;;;7404175;19;19915;-72
2023/03/05 08:35:58;;;;;;;2.47;0.60;;;2.40;99.90;;;;;;7404654;19;20355;-72
2023/03/05 08:38:27;;;;;;;7.32;1.48;;;2.70;99.90;;;;;;7403634;19;19928;-72
2023/03/05 08:40:59;;;;;;;2.38;1.40;;;3.50;99.90;;;;;;7401727;19;19929;-72
2023/03/05 08:43:29;;;;;;;3.15;1.67;;;4.10;99.90;;;;;;7403793;19;19964;-72
2023/03/05 08:45:58;;;;;;;2.85;0.40;;;3.10;99.90;;;;;;7404311;19;20348;-72
2023/03/05 08:48:27;;;;;;;3.30;0.70;;;4.30;99.90;;;;;;7404048;19;20336;-72
2023/03/05 08:50:57;;;;;;;1.63;0.52;;;3.60;99.90;;;;;;7404329;19;19922;-73
2023/03/05 08:53:31;;;;;;;3.58;0.50;;;4.30;99.90;;;;;;7404295;19;20309;-72
2023/03/05 08:56:03;;;;;;;2.05;0.45;;;4.40;99.90;;;;;;7406139;19;20287;-72
2023/03/05 08:58:32;;;;;;;3.85;0.60;;;2.70;99.90;;;;;;7404126;19;19934;-72
2023/03/05 09:01:01;;;;;;;4.80;0.57;;;4.60;99.90;;;;;;7401600;19;19918;-72
2023/03/05 09:03:30;;;;;;;1.35;0.60;;;2.90;99.90;;;;;;7403740;19;19925;-72
2023/03/05 09:06:02;;;;;;;3.83;0.65;;;3.80;99.90;;;;;;7403723;19;19922;-72
2023/03/05 09:08:34;;;;;;;2.40;0.40;;;4.30;99.90;;;;;;7403222;19;20262;-72
2023/03/05 09:11:10;;;;;;;5.57;0.68;;;4.70;99.90;;;;;;7403060;19;19925;-73
2023/03/05 09:13:39;;;;;;;6.72;1.48;;;3.90;99.90;;;;;;7403075;19;19919;-72
2023/03/05 09:16:10;;;;;;;1.52;0.35;;;3.90;99.90;;;;;;7402002;19;19924;-73
2023/03/05 09:18:39;;;;;;;2.55;0.75;;;4.70;99.90;;;;;;7400888;19;19925;-73
2023/03/05 09:21:10;;;;;;;1.88;0.40;;;4.20;99.90;;;;;;7401167;19;20368;-73
2023/03/05 09:23:40;;;;;;;2.40;0.65;;;4.90;99.90;;;;;;7403821;19;20547;-73
2023/03/05 09:26:14;;;;;;;1.42;0.52;;;4.10;99.90;;;;;;7403100;19;19915;-72
2023/03/05 09:28:43;;;;;;;1.58;0.32;;;3.90;99.90;;;;;;7402712;19;19922;-73
2023/03/05 09:31:13;;;;;;;1.48;0.47;;;4.40;99.90;;;;;;7402950;19;20341;-73
2023/03/05 09:33:42;;;;;;;2.40;0.30;;;4.20;99.90;;;;;;7402723;19;19935;-72
2023/03/05 09:36:21;;;;;;;1.88;0.40;;;3.80;99.90;;;;;;7402394;19;19945;-73
2023/03/05 09:38:50;;;;;;;1.42;0.60;;;4.40;99.90;;;;;;7402498;19;19974;-72
2023/03/05 09:41:30;;;;;;;0.80;0.30;;;4.40;99.90;;;;;;7400907;19;19917;-73
2023/03/05 09:44:13;;;;;;;1.88;0.30;;;4.50;99.90;;;;;;7402369;19;19922;-73
2023/03/05 09:46:53;;;;;;;1.38;0.30;;;4.70;99.90;;;;;;7403054;19;19980;-73
2023/03/05 09:49:33;;;;;;;3.65;0.68;;;4.50;99.90;;;;;;7402169;19;20355;-72
2023/03/05 09:52:09;;;;;;;3.72;1.20;;;5.20;99.90;;;;;;7400648;19;19918;-72
2023/03/05 09:54:41;;;;;;;5.88;2.25;;;5.20;99.90;;;;;;7403835;19;19926;-72
2023/03/05 09:57:18;;;;;;;3.15;0.80;;;5.00;99.90;;;;;;7402110;19;19967;-73
2023/03/05 09:59:51;;;;;;;6.82;2.17;;;5.70;99.90;;;;;;7401340;19;20340;-73
2023/03/05 10:02:26;;;;;;;3.45;1.40;;;5.50;99.90;;;;;;7402138;19;19910;-72
2023/03/05 10:05:01;;;;;;;3.78;0.88;;;5.40;99.90;;;;;;7401756;19;19918;-72
2023/03/05 10:07:33;;;;;;;4.85;2.60;;;3.60;99.90;;;;;;7401611;19;20295;-72
2023/03/05 10:10:05;;;;;;;4.28;1.42;;;4.50;99.90;;;;;;7401602;19;20398;-72
2023/03/05 10:12:44;;;;;;;3.10;1.45;;;5.20;99.90;;;;;;7401198;19;19914;-72
2023/03/05 10:15:28;;;;;;;5.82;1.45;;;3.70;99.90;;;;;;7400639;19;19924;-73
2023/03/05 10:18:10;;;;;;;6.13;1.80;;;4.40;99.90;;;;;;7400142;19;20351;-73
2023/03/05 10:20:44;;;;;;;;;;;4.50;99.90;;;;;;7403301;19;20653;-72
2023/03/05 10:23:31;;;;;;;3.10;0.77;;;4.60;99.90;;;;;;7401705;19;19922;-73
2023/03/05 10:26:19;;;;;;;4.78;2.35;;;4.60;99.90;;;;;;7404461;19;20360;-73
2023/03/05 10:29:04;;;;;;;1.42;1.10;;;4.90;99.90;;;;;;7401800;19;19919;-73
2023/03/05 10:31:53;;;;;;;4.95;1.25;;;4.90;99.90;;;;;;7399351;19;20282;-72
2023/03/05 10:35:01;;;;;;;6.97;2.00;;;5.60;99.90;;;;;;7401355;19;19935;-73
2023/03/05 10:37:56;;;;;;;2.67;0.63;;;4.90;99.90;;;;;;7400911;19;20263;-73
2023/03/05 10:40:31;;;;;;;7.32;2.35;;;4.90;99.90;;;;;;7399930;19;19923;-73
2023/03/05 10:43:15;;;;;;;13.50;6.53;;;5.00;99.90;;;;;;7401168;19;19950;-73
2023/03/05 10:45:51;;;;;;;4.70;2.70;;;4.10;99.90;;;;;;7401582;19;19915;-73
2023/03/05 10:48:29;;;;;;;3.58;0.88;;;4.80;99.90;;;;;;7401005;19;19915;-72
2023/03/05 10:51:03;;;;;;;3.00;0.50;;;5.60;99.90;;;;;;7401766;19;19915;-72
2023/03/05 10:53:36;;;;;;;3.53;1.00;;;5.10;99.90;;;;;;7405677;19;19927;-72
2023/03/05 10:56:14;;;;;;;1.92;0.55;;;5.40;99.90;;;;;;7403094;19;20282;-73
2023/03/05 10:58:58;;;;;;;1.52;0.60;;;6.30;99.90;;;;;;7403932;19;20260;-73
2023/03/05 11:01:32;;;;;;;2.05;0.70;;;6.40;99.90;;;;;;7401575;19;19921;-73
2023/03/05 11:04:30;;;;;;;1.92;0.50;;;5.40;99.90;;;;;;7405550;19;20290;-73
2023/03/05 11:06:59;;;;;;;3.63;0.65;;;5.70;99.90;;;;;;7407181;19;19970;-73
2023/03/05 11:09:33;;;;;;;4.75;0.40;;;5.70;99.90;;;;;;7406604;19;19932;-73
2023/03/05 11:12:14;;;;;;;0.80;0.40;;;6.30;99.90;;;;;;7406453;19;19981;-73
2023/03/05 11:14:45;;;;;;;0.77;0.20;;;6.00;99.90;;;;;;7405452;19;19952;-73
2023/03/05 11:17:36;;;;;;;3.80;0.32;;;5.70;99.90;;;;;;7405906;19;19978;-74
2023/03/05 11:20:32;;;;;;;3.60;0.75;;;6.70;99.90;;;;;;7405610;19;20002;-74
2023/03/05 11:23:10;;;;;;;1.02;0.32;;;5.50;99.90;;;;;;7406192;19;19915;-73
2023/03/05 11:25:54;;;;;;;1.23;0.40;;;5.60;99.90;;;;;;7410723;19;19930;-75
2023/03/05 11:28:24;;;;;;;1.70;0.70;;;5.60;99.90;;;;;;7406055;19;19918;-73
2023/03/05 11:31:00;;;;;;;3.53;0.40;;;5.50;99.90;;;;;;7405809;19;19940;-73
2023/03/05 11:33:39;;;;;;;1.52;0.22;;;5.60;99.90;;;;;;7405792;19;20483;-73
2023/03/05 11:36:30;;;;;;;2.95;0.35;;;6.40;99.90;;;;;;7405514;19;19919;-73
2023/03/05 11:39:16;;;;;;;0.57;0.20;;;5.80;99.90;;;;;;7405804;19;19932;-73
2023/03/05 11:41:49;;;;;;;4.15;0.60;;;5.80;99.90;;;;;;7402984;19;19948;-73
2023/03/05 11:44:23;;;;;;;3.50;0.38;;;6.30;99.90;;;;;;7405078;19;20277;-73
2023/03/05 11:46:55;;;;;;;1.77;0.45;;;6.00;99.90;;;;;;7405981;19;19918;-73
2023/03/05 11:49:32;;;;;;;1.52;0.68;;;6.00;99.90;;;;;;7405215;19;19926;-74
2023/03/05 11:52:09;;;;;;;1.48;0.30;;;7.20;99.90;;;;;;7405916;19;19939;-73
2023/03/05 11:54:48;;;;;;;0.82;0.20;;;6.00;99.90;;;;;;7407946;19;20259;-73
2023/03/05 11:57:18;;;;;;;3.75;0.40;;;6.10;99.90;;;;;;7405468;19;19978;-73
2023/03/05 11:59:47;;;;;;;2.53;0.50;;;6.30;99.90;;;;;;7405284;19;19966;-74
2023/03/05 12:02:21;;;;;;;2.65;0.52;;;6.10;99.90;;;;;;7405052;19;19988;-73
2023/03/05 12:04:54;;;;;;;3.00;0.55;;;6.20;99.90;;;;;;7405095;19;19946;-73
2023/03/05 12:07:34;;;;;;;2.85;0.40;;;6.50;99.90;;;;;;7405939;19;19914;-74
2023/03/05 12:10:17;;;;;;;1.40;0.50;;;6.50;99.90;;;;;;7405007;19;19915;-74
2023/03/05 12:12:54;;;;;;;2.20;0.90;;;6.50;99.90;;;;;;7404678;19;19978;-74
2023/03/05 12:15:37;;;;;;;1.55;0.50;;;6.30;99.90;;;;;;7403473;19;20307;-73
2023/03/05 12:18:20;;;;;;;1.98;0.40;;;6.40;99.90;;;;;;7403344;19;19914;-73
2023/03/05 12:21:02;;;;;;;4.53;0.60;;;6.40;99.90;;;;;;7403785;19;19914;-73
2023/03/05 12:23:46;;;;;;;3.47;0.35;;;6.80;99.90;;;;;;7406471;19;19922;-73
2023/03/05 12:26:15;;;;;;;;;;;6.70;99.90;;;;;;7407530;19;20276;-73
2023/03/05 12:29:05;;;;;;;3.70;0.57;;;6.50;99.90;;;;;;7404469;19;19923;-73
2023/03/05 12:31:44;;;;;;;3.78;0.30;;;6.40;99.90;;;;;;7404486;19;19942;-73
2023/03/05 12:34:48;;;;;;;2.25;0.40;;;6.40;99.90;;;;;;7404603;19;19926;-73
2023/03/05 12:38:02;;;;;;;3.00;0.30;;;6.30;99.90;;;;;;7404052;19;19942;-73
2023/03/05 12:40:35;;;;;;;1.75;0.40;;;6.20;99.90;;;;;;7400137;19;19922;-73
2023/03/05 12:43:32;;;;;;;3.20;0.50;;;6.00;99.90;;;;;;7403207;19;19922;-74
2023/03/05 12:46:27;;;;;;;4.57;0.60;;;6.00;99.90;;;;;;7403598;19;19914;-73
2023/03/05 12:48:56;;;;;;;1.25;0.55;;;6.10;99.90;;;;;;7403176;19;19915;-74
2023/03/05 12:51:38;;;;;;;2.15;0.30;;;6.00;99.90;;;;;;7403531;19;19918;-72
2023/03/05 12:54:28;;;;;;;1.70;0.40;;;6.90;99.90;;;;;;7405038;19;19915;-73
2023/03/05 12:57:03;;;;;;;1.55;0.40;;;6.00;99.90;;;;;;7404145;19;19914;-73
2023/03/05 12:59:43;;;;;;;2.92;0.52;;;5.90;99.90;;;;;;7403926;19;19915;-73
2023/03/05 13:02:28;;;;;;;3.28;0.80;;;6.00;99.90;;;;;;7401951;19;19922;-73
2023/03/05 13:05:02;;;;;;;2.85;0.70;;;5.90;99.90;;;;;;7403436;19;19918;-73
2023/03/05 13:07:30;;;;;;;1.45;0.70;;;6.40;99.90;;;;;;7403657;19;19911;-74
2023/03/05 13:10:01;;;;;;;2.72;0.55;;;6.10;99.90;;;;;;7403709;19;19921;-73
2023/03/05 13:12:33;;;;;;;2.28;0.77;;;6.70;99.90;;;;;;7402511;19;19918;-73
2023/03/05 13:15:05;;;;;;;3.92;0.40;;;6.40;99.90;;;;;;7403396;19;20396;-73
2023/03/05 13:17:39;;;;;;;6.40;0.90;;;6.30;99.90;;;;;;7401855;19;19914;-73
2023/03/05 13:20:32;;;;;;;3.22;1.55;;;6.20;99.90;;;;;;7403040;19;19914;-73
2023/03/05 13:23:22;;;;;;;3.35;0.65;;;6.10;99.90;;;;;;7402912;19;20336;-74
2023/03/05 13:26:02;;;;;;;3.20;0.70;;;7.20;99.90;;;;;;7399841;19;20347;-73
2023/03/05 13:28:36;;;;;;;4.20;1.48;;;6.20;99.90;;;;;;7403263;19;19910;-73
2023/03/05 13:31:14;;;;;;;2.45;0.20;;;6.30;99.90;;;;;;7402606;19;19914;-73